createdAt,value
2023-12-09T00:00:40.238Z,1013.027
2023-12-09T00:01:41.273Z,1013.005
2023-12-09T00:02:40.287Z,1013.069
2023-12-09T00:03:41.386Z,1013.031
2023-12-09T00:04:40.235Z,1013.065
2023-12-09T00:05:40.358Z,1013.07
2023-12-09T00:06:41.332Z,1013.089
2023-12-09T00:07:40.252Z,1013.061
2023-12-09T00:08:41.232Z,1013.114
2023-12-09T00:09:40.229Z,1013.109
2023-12-09T00:10:40.288Z,1013.096
2023-12-09T00:11:41.279Z,1013.138
2023-12-09T00:12:40.391Z,1013.141
2023-12-09T00:13:41.234Z,1013.147
2023-12-09T00:14:40.297Z,1013.17
2023-12-09T00:15:44.595Z,1013.126
2023-12-09T00:16:41.256Z,1013.199
2023-12-09T00:17:40.272Z,1013.203
2023-12-09T00:18:41.389Z,1013.185
2023-12-09T00:19:40.323Z,1013.159
2023-12-09T00:20:41.296Z,1013.154
2023-12-09T00:21:41.346Z,1013.134
2023-12-09T00:22:40.313Z,1013.131
2023-12-09T00:23:47.540Z,1013.083
2023-12-09T00:24:40.287Z,1013.108
2023-12-09T00:25:41.278Z,1013.141
2023-12-09T00:26:41.305Z,1013.086
2023-12-09T00:27:40.322Z,1013.119
2023-12-09T00:28:41.340Z,1013.092
2023-12-09T00:29:40.347Z,1013.059
2023-12-09T00:30:41.356Z,1013.081
2023-12-09T00:31:41.313Z,1013.142
2023-12-09T00:32:41.397Z,1013.11
2023-12-09T00:33:40.408Z,1013.102
2023-12-09T00:34:40.310Z,1013.11
2023-12-09T00:35:41.355Z,1013.12
2023-12-09T00:36:41.340Z,1013.091
2023-12-09T00:37:41.293Z,1013.072
2023-12-09T00:38:40.343Z,1013.085
2023-12-09T00:39:40.333Z,1013.057
2023-12-09T00:40:41.330Z,1013.041
2023-12-09T00:41:41.297Z,1013.019
2023-12-09T00:42:41.335Z,1013.023
2023-12-09T00:43:40.323Z,1013.005
2023-12-09T00:44:41.376Z,1013.028
2023-12-09T00:45:40.355Z,1013.024
2023-12-09T00:46:41.320Z,1013.067
2023-12-09T00:47:41.396Z,1013.043
2023-12-09T00:48:40.442Z,1013.048
2023-12-09T00:49:41.494Z,1013.005
2023-12-09T00:50:40.331Z,1013.02
2023-12-09T00:51:41.369Z,1013.014
2023-12-09T00:52:41.342Z,1013.002
2023-12-09T00:53:40.336Z,1013.054
2023-12-09T00:54:41.482Z,1013.035
2023-12-09T00:55:40.390Z,1013
2023-12-09T00:56:41.351Z,1013.03
2023-12-09T00:57:41.325Z,1013.053
2023-12-09T00:58:40.384Z,1013.048
2023-12-09T00:59:41.365Z,1013.051
2023-12-09T01:00:40.496Z,1013.045
2023-12-09T01:01:41.380Z,1013.031
2023-12-09T01:02:40.461Z,1013.006
2023-12-09T01:03:40.466Z,1013.062
2023-12-09T01:04:41.458Z,1013.07
2023-12-09T01:05:40.358Z,1013.078
2023-12-09T01:06:41.382Z,1013.089
2023-12-09T01:07:40.398Z,1013.101
2023-12-09T01:08:40.408Z,1013.106
2023-12-09T01:09:41.414Z,1013.141
2023-12-09T01:10:40.382Z,1013.134
2023-12-09T01:11:41.410Z,1013.17
2023-12-09T01:12:40.422Z,1013.172
2023-12-09T01:13:41.368Z,1013.139
2023-12-09T01:14:40.378Z,1013.115
2023-12-09T01:15:40.458Z,1013.143
2023-12-09T01:16:41.411Z,1013.139
2023-12-09T01:17:40.388Z,1013.119
2023-12-09T01:18:41.499Z,1013.116
2023-12-09T01:19:40.427Z,1013.051
2023-12-09T01:20:40.387Z,1013.078
2023-12-09T01:21:41.489Z,1013.069
2023-12-09T01:22:40.439Z,1013.107
2023-12-09T01:23:41.422Z,1013.038
2023-12-09T01:24:40.454Z,1013.066
2023-12-09T01:25:40.435Z,1013.077
2023-12-09T01:26:41.488Z,1013.087
2023-12-09T01:27:40.449Z,1013.085
2023-12-09T01:28:41.405Z,1013.094
2023-12-09T01:29:40.455Z,1013.085
2023-12-09T01:30:41.446Z,1013.076
2023-12-09T01:31:41.468Z,1013.048
2023-12-09T01:32:40.592Z,1013.066
2023-12-09T01:33:41.562Z,1013.098
2023-12-09T01:34:40.533Z,1013.153
2023-12-09T01:35:41.451Z,1013.115
2023-12-09T01:36:41.455Z,1013.139
2023-12-09T01:37:40.471Z,1013.103
2023-12-09T01:38:41.472Z,1013.114
2023-12-09T01:39:40.434Z,1013.146
2023-12-09T01:40:41.452Z,1013.107
2023-12-09T01:41:41.478Z,1013.091
2023-12-09T01:42:45.202Z,1013.1
2023-12-09T01:43:40.431Z,1013.102
2023-12-09T01:44:40.500Z,1013.088
2023-12-09T01:45:41.560Z,1013.089
2023-12-09T01:46:41.444Z,1013.039
2023-12-09T01:47:41.589Z,1013.028
2023-12-09T01:48:40.669Z,1012.984
2023-12-09T01:49:40.705Z,1013.005
2023-12-09T01:50:41.564Z,1012.992
2023-12-09T01:51:41.493Z,1012.991
2023-12-09T01:52:41.506Z,1013.032
2023-12-09T01:53:40.457Z,1012.993
2023-12-09T01:54:40.506Z,1012.998
2023-12-09T01:55:41.519Z,1013.021
2023-12-09T01:56:41.501Z,1013.064
2023-12-09T01:57:41.573Z,1013.087
2023-12-09T01:58:40.493Z,1013.11
2023-12-09T01:59:41.497Z,1013.061
2023-12-09T02:00:40.563Z,1013.047
2023-12-09T02:01:41.522Z,1013.052
2023-12-09T02:02:41.543Z,1013.021
2023-12-09T02:03:40.573Z,1013.051
2023-12-09T02:04:41.573Z,1013.036
2023-12-09T02:05:40.479Z,1013.056
2023-12-09T02:06:41.485Z,1012.977
2023-12-09T02:07:41.510Z,1012.995
2023-12-09T02:08:40.535Z,1013.001
2023-12-09T02:09:41.535Z,1013.033
2023-12-09T02:10:40.497Z,1013.007
2023-12-09T02:11:47.891Z,1013.011
2023-12-09T02:12:40.538Z,1013.014
2023-12-09T02:13:40.536Z,1013.067
2023-12-09T02:14:41.527Z,1012.981
2023-12-09T02:15:40.509Z,1012.955
2023-12-09T02:16:41.570Z,1013.003
2023-12-09T02:17:40.536Z,1012.941
2023-12-09T02:18:40.623Z,1012.994
2023-12-09T02:19:41.566Z,1012.955
2023-12-09T02:20:40.523Z,1012.957
2023-12-09T02:21:41.545Z,1012.931
2023-12-09T02:22:40.562Z,1012.891
2023-12-09T02:23:40.595Z,1012.892
2023-12-09T02:24:41.578Z,1012.847
2023-12-09T02:25:40.531Z,1012.866
2023-12-09T02:26:41.591Z,1012.821
2023-12-09T02:27:40.531Z,1012.819
2023-12-09T02:28:52.009Z,1012.833
2023-12-09T02:29:40.583Z,1012.761
2023-12-09T02:30:40.603Z,1012.785
2023-12-09T02:31:41.576Z,1012.757
2023-12-09T02:32:40.734Z,1012.748
2023-12-09T02:33:41.668Z,1012.724
2023-12-09T02:34:40.719Z,1012.717
2023-12-09T02:35:40.558Z,1012.705
2023-12-09T02:36:41.605Z,1012.717
2023-12-09T02:37:40.613Z,1012.668
2023-12-09T02:38:41.617Z,1012.676
2023-12-09T02:39:40.618Z,1012.68
2023-12-09T02:40:42.690Z,1012.653
2023-12-09T02:41:41.602Z,1012.659
2023-12-09T02:42:40.750Z,1012.586
2023-12-09T02:43:41.563Z,1012.584
2023-12-09T02:44:40.626Z,1012.581
2023-12-09T02:45:41.658Z,1012.566
2023-12-09T02:46:41.580Z,1012.577
2023-12-09T02:47:40.707Z,1012.543
2023-12-09T02:48:41.760Z,1012.561
2023-12-09T02:49:40.662Z,1012.545
2023-12-09T02:50:41.616Z,1012.561
2023-12-09T02:51:41.602Z,1012.555
2023-12-09T02:52:40.624Z,1012.551
2023-12-09T02:53:41.585Z,1012.502
2023-12-09T02:54:40.620Z,1012.493
2023-12-09T02:55:41.638Z,1012.507
2023-12-09T02:56:41.590Z,1012.486
2023-12-09T02:57:41.599Z,1012.497
2023-12-09T02:58:40.632Z,1012.469
2023-12-09T02:59:40.641Z,1012.522
2023-12-09T03:00:41.831Z,1012.496
2023-12-09T03:01:41.673Z,1012.476
2023-12-09T03:02:41.695Z,1012.486
2023-12-09T03:03:40.728Z,1012.461
2023-12-09T03:04:40.727Z,1012.453
2023-12-09T03:05:41.643Z,1012.433
2023-12-09T03:06:41.670Z,1012.387
2023-12-09T03:07:41.661Z,1012.41
2023-12-09T03:08:40.666Z,1012.403
2023-12-09T03:09:44.952Z,1012.386
2023-12-09T03:10:40.661Z,1012.391
2023-12-09T03:11:41.670Z,1012.379
2023-12-09T03:12:41.771Z,1012.418
2023-12-09T03:13:40.641Z,1012.404
2023-12-09T03:14:41.648Z,1012.419
2023-12-09T03:15:40.715Z,1012.386
2023-12-09T03:16:41.690Z,1012.395
2023-12-09T03:17:41.797Z,1012.376
2023-12-09T03:18:40.704Z,1012.408
2023-12-09T03:19:41.753Z,1012.384
2023-12-09T03:20:40.655Z,1012.355
2023-12-09T03:21:41.701Z,1012.342
2023-12-09T03:22:41.744Z,1012.346
2023-12-09T03:23:40.666Z,1012.344
2023-12-09T03:24:41.649Z,1012.319
2023-12-09T03:25:40.685Z,1012.339
2023-12-09T03:26:41.706Z,1012.238
2023-12-09T03:27:40.803Z,1012.265
2023-12-09T03:28:40.678Z,1012.262
2023-12-09T03:29:41.689Z,1012.247
2023-12-09T03:30:40.745Z,1012.234
2023-12-09T03:31:41.726Z,1012.143
2023-12-09T03:32:40.734Z,1012.103
2023-12-09T03:33:40.804Z,1012.072
2023-12-09T03:34:41.684Z,1012.109
2023-12-09T03:35:40.687Z,1012.086
2023-12-09T03:36:41.726Z,1012.037
2023-12-09T03:37:40.740Z,1012.047
2023-12-09T03:38:41.718Z,1012.038
2023-12-09T03:39:40.720Z,1012.01
2023-12-09T03:40:40.681Z,1012.059
2023-12-09T03:41:41.723Z,1012.016
2023-12-09T03:42:40.750Z,1011.986
2023-12-09T03:43:41.834Z,1012.02
2023-12-09T03:44:40.719Z,1012.014
2023-12-09T03:45:40.710Z,1011.973
2023-12-09T03:46:41.747Z,1011.974
2023-12-09T03:47:40.741Z,1011.963
2023-12-09T03:48:41.906Z,1011.929
2023-12-09T03:49:40.943Z,1011.951
2023-12-09T03:50:40.714Z,1011.941
2023-12-09T03:51:41.759Z,1011.902
2023-12-09T03:52:40.762Z,1011.881
2023-12-09T03:53:41.705Z,1011.864
2023-12-09T03:54:40.754Z,1011.867
2023-12-09T03:55:41.711Z,1011.939
2023-12-09T03:56:41.763Z,1011.931
2023-12-09T03:57:40.810Z,1011.957
2023-12-09T03:58:41.728Z,1011.979
2023-12-09T03:59:40.771Z,1011.937
2023-12-09T04:00:41.801Z,1011.987
2023-12-09T04:01:41.757Z,1011.948
2023-12-09T04:02:40.780Z,1012.005
2023-12-09T04:03:41.867Z,1012.029
2023-12-09T04:04:40.777Z,1012.023
2023-12-09T04:05:41.755Z,1012.019
2023-12-09T04:06:41.791Z,1012.07
2023-12-09T04:07:41.808Z,1012.051
2023-12-09T04:08:40.801Z,1012.057
2023-12-09T04:09:40.815Z,1012.063
2023-12-09T04:10:41.807Z,1012.111
2023-12-09T04:11:41.789Z,1012.097
2023-12-09T04:12:41.854Z,1012.154
2023-12-09T04:13:40.767Z,1012.194
2023-12-09T04:14:40.793Z,1012.189
2023-12-09T04:15:41.837Z,1012.168
2023-12-09T04:16:41.770Z,1012.077
2023-12-09T04:17:41.889Z,1012.128
2023-12-09T04:18:40.875Z,1012.084
2023-12-09T04:19:40.852Z,1012.114
2023-12-09T04:20:41.901Z,1012.085
2023-12-09T04:21:41.799Z,1012.092
2023-12-09T04:22:41.787Z,1012.083
2023-12-09T04:23:40.829Z,1012.065
2023-12-09T04:24:47.748Z,1012.031
2023-12-09T04:25:40.773Z,1012.011
2023-12-09T04:26:41.872Z,1012.068
2023-12-09T04:27:41.784Z,1012.062
2023-12-09T04:28:40.824Z,1012.099
2023-12-09T04:29:41.841Z,1012.107
2023-12-09T04:30:40.803Z,1012.105
2023-12-09T04:31:41.830Z,1012.111
2023-12-09T04:32:41.831Z,1012.067
2023-12-09T04:33:40.894Z,1012.109
2023-12-09T04:34:41.817Z,1012.074
2023-12-09T04:35:40.804Z,1012.049
2023-12-09T04:36:41.911Z,1012.053
2023-12-09T04:37:40.814Z,1012.061
2023-12-09T04:38:40.860Z,1012.032
2023-12-09T04:39:41.868Z,1012.04
2023-12-09T04:40:40.825Z,1012.082
2023-12-09T04:41:41.805Z,1012.07
2023-12-09T04:42:40.901Z,1012.057
2023-12-09T04:43:40.823Z,1012.046
2023-12-09T04:44:41.867Z,1012.023
2023-12-09T04:45:40.852Z,1011.952
2023-12-09T04:46:41.911Z,1011.929
2023-12-09T04:47:40.958Z,1011.977
2023-12-09T04:48:40.935Z,1011.935
2023-12-09T04:49:42.099Z,1011.832
2023-12-09T04:50:40.842Z,1011.862
2023-12-09T04:51:41.885Z,1011.838
2023-12-09T04:52:40.833Z,1011.809
2023-12-09T04:53:41.929Z,1011.826
2023-12-09T04:54:40.876Z,1011.853
2023-12-09T04:55:40.871Z,1011.783
2023-12-09T04:56:41.928Z,1011.822
2023-12-09T04:57:40.917Z,1011.82
2023-12-09T04:58:41.864Z,1011.748
2023-12-09T04:59:40.892Z,1011.725
2023-12-09T05:00:40.960Z,1011.745
2023-12-09T05:01:41.883Z,1011.684
2023-12-09T05:02:40.892Z,1011.724
2023-12-09T05:03:42.034Z,1011.705
2023-12-09T05:04:40.865Z,1011.667
2023-12-09T05:05:41.911Z,1011.683
2023-12-09T05:06:41.991Z,1011.655
2023-12-09T05:07:40.868Z,1011.642
2023-12-09T05:08:41.896Z,1011.654
2023-12-09T05:09:40.964Z,1011.609
2023-12-09T05:10:41.916Z,1011.643
2023-12-09T05:11:41.951Z,1011.651
2023-12-09T05:12:40.948Z,1011.639
2023-12-09T05:13:41.962Z,1011.653
2023-12-09T05:14:40.936Z,1011.687
2023-12-09T05:15:41.999Z,1011.666
2023-12-09T05:16:41.970Z,1011.731
2023-12-09T05:17:41.038Z,1011.731
2023-12-09T05:18:42.066Z,1011.701
2023-12-09T05:19:41.464Z,1011.686
2023-12-09T05:20:41.928Z,1011.61
2023-12-09T05:21:42.051Z,1011.689
2023-12-09T05:22:41.914Z,1011.682
2023-12-09T05:23:40.906Z,1011.686
2023-12-09T05:24:40.946Z,1011.643
2023-12-09T05:25:41.900Z,1011.676
2023-12-09T05:26:42.012Z,1011.607
2023-12-09T05:27:41.914Z,1011.656
2023-12-09T05:28:40.948Z,1011.589
2023-12-09T05:29:44.060Z,1011.541
2023-12-09T05:30:41.984Z,1011.492
2023-12-09T05:31:42.094Z,1011.522
2023-12-09T05:32:41.962Z,1011.562
2023-12-09T05:33:41.049Z,1011.548
2023-12-09T05:34:45.770Z,1011.599
2023-12-09T05:35:40.921Z,1011.589
2023-12-09T05:36:42.036Z,1011.573
2023-12-09T05:37:41.999Z,1011.498
2023-12-09T05:38:40.943Z,1011.5
2023-12-09T05:39:42.023Z,1011.466
2023-12-09T05:40:40.953Z,1011.402
2023-12-09T05:41:41.993Z,1011.309
2023-12-09T05:42:42.016Z,1011.325
2023-12-09T05:43:40.944Z,1011.325
2023-12-09T05:44:41.978Z,1011.365
2023-12-09T05:45:41.042Z,1011.33
2023-12-09T05:46:42.008Z,1011.329
2023-12-09T05:47:42.083Z,1011.3
2023-12-09T05:48:41.180Z,1011.318
2023-12-09T05:49:42.035Z,1011.351
2023-12-09T05:50:40.955Z,1011.323
2023-12-09T05:51:42.091Z,1011.337
2023-12-09T05:52:40.967Z,1011.33
2023-12-09T05:53:41.018Z,1011.308
2023-12-09T05:54:42.061Z,1011.285
2023-12-09T05:55:40.990Z,1011.264
2023-12-09T05:56:42.020Z,1011.242
2023-12-09T05:57:41.059Z,1011.287
2023-12-09T05:58:40.995Z,1011.272
2023-12-09T05:59:42.009Z,1011.292
2023-12-09T06:00:41.145Z,1011.294
2023-12-09T06:01:42.024Z,1011.326
2023-12-09T06:02:40.986Z,1011.308
2023-12-09T06:03:42.081Z,1011.239
2023-12-09T06:04:41.056Z,1011.335
2023-12-09T06:05:41.006Z,1011.286
2023-12-09T06:06:42.043Z,1011.287
2023-12-09T06:07:40.999Z,1011.24
2023-12-09T06:08:42.088Z,1011.261
2023-12-09T06:09:41.076Z,1011.221
2023-12-09T06:10:41.009Z,1011.268
2023-12-09T06:11:42.041Z,1011.264
2023-12-09T06:12:41.241Z,1011.241
2023-12-09T06:13:42.069Z,1011.28
2023-12-09T06:14:41.067Z,1011.263
2023-12-09T06:15:41.102Z,1011.215
2023-12-09T06:16:42.067Z,1011.18
2023-12-09T06:17:41.097Z,1011.093
2023-12-09T06:18:42.049Z,1011.092
2023-12-09T06:19:41.029Z,1011.069
2023-12-09T06:20:42.024Z,1011.055
2023-12-09T06:21:42.159Z,1011.034
2023-12-09T06:22:41.032Z,1011.059
2023-12-09T06:23:42.077Z,1011.106
2023-12-09T06:24:41.168Z,1011.101
2023-12-09T06:25:42.029Z,1011.069
2023-12-09T06:26:42.032Z,1011.046
2023-12-09T06:27:41.111Z,1011.04
2023-12-09T06:28:42.074Z,1011.037
2023-12-09T06:29:41.093Z,1011.036
2023-12-09T06:30:42.128Z,1011.051
2023-12-09T06:31:42.124Z,1011.051
2023-12-09T06:32:42.110Z,1011.062
2023-12-09T06:33:41.331Z,1011.088
2023-12-09T06:34:41.102Z,1011.134
2023-12-09T06:35:42.087Z,1011.14
2023-12-09T06:36:42.116Z,1011.136
2023-12-09T06:37:42.153Z,1011.097
2023-12-09T06:38:41.232Z,1011.131
2023-12-09T06:39:41.094Z,1011.08
2023-12-09T06:40:42.088Z,1011.126
2023-12-09T06:41:42.146Z,1011.068
2023-12-09T06:42:42.315Z,1011.035
2023-12-09T06:43:41.078Z,1011.005
2023-12-09T06:44:41.123Z,1011.006
2023-12-09T06:45:42.115Z,1011.001
2023-12-09T06:46:42.104Z,1010.973
2023-12-09T06:47:42.193Z,1010.982
2023-12-09T06:48:41.166Z,1010.93
2023-12-09T06:49:42.389Z,1010.933
2023-12-09T06:50:41.110Z,1010.826
2023-12-09T06:51:42.179Z,1010.775
2023-12-09T06:52:42.096Z,1010.812
2023-12-09T06:53:41.170Z,1010.817
2023-12-09T06:54:42.217Z,1010.848
2023-12-09T06:55:41.116Z,1010.823
2023-12-09T06:56:42.109Z,1010.833
2023-12-09T06:57:42.179Z,1010.786
2023-12-09T06:58:41.101Z,1010.819
2023-12-09T06:59:42.170Z,1010.791
2023-12-09T07:00:41.327Z,1010.776
2023-12-09T07:01:42.183Z,1010.748
2023-12-09T07:02:49.261Z,1010.756
2023-12-09T07:03:42.228Z,1010.737
2023-12-09T07:04:42.251Z,1010.76
2023-12-09T07:05:41.177Z,1010.696
2023-12-09T07:06:42.185Z,1010.675
2023-12-09T07:07:41.130Z,1010.643
2023-12-09T07:08:41.177Z,1010.657
2023-12-09T07:09:42.254Z,1010.701
2023-12-09T07:10:41.134Z,1010.578
2023-12-09T07:11:42.120Z,1010.613
2023-12-09T07:12:41.220Z,1010.602
2023-12-09T07:13:41.142Z,1010.62
2023-12-09T07:14:42.234Z,1010.596
2023-12-09T07:15:41.171Z,1010.595
2023-12-09T07:16:42.189Z,1010.539
2023-12-09T07:17:41.300Z,1010.526
2023-12-09T07:18:43.057Z,1010.461
2023-12-09T07:19:41.217Z,1010.478
2023-12-09T07:20:41.162Z,1010.471
2023-12-09T07:21:42.168Z,1010.447
2023-12-09T07:22:41.169Z,1010.503
2023-12-09T07:23:42.209Z,1010.457
2023-12-09T07:24:41.309Z,1010.389
2023-12-09T07:25:41.182Z,1010.415
2023-12-09T07:26:42.191Z,1010.373
2023-12-09T07:27:41.229Z,1010.385
2023-12-09T07:28:42.185Z,1010.376
2023-12-09T07:29:41.208Z,1010.352
2023-12-09T07:30:42.286Z,1010.38
2023-12-09T07:31:42.196Z,1010.372
2023-12-09T07:32:41.334Z,1010.33
2023-12-09T07:33:42.346Z,1010.281
2023-12-09T07:34:41.359Z,1010.255
2023-12-09T07:35:42.215Z,1010.216
2023-12-09T07:36:42.294Z,1010.195
2023-12-09T07:37:42.082Z,1010.188
2023-12-09T07:38:42.259Z,1010.284
2023-12-09T07:39:41.227Z,1010.211
2023-12-09T07:40:42.215Z,1010.18
2023-12-09T07:41:42.196Z,1010.083
2023-12-09T07:42:41.291Z,1010.052
2023-12-09T07:43:42.228Z,1010.076
2023-12-09T07:44:41.197Z,1010.09
2023-12-09T07:45:42.318Z,1010.136
2023-12-09T07:46:42.228Z,1010.125
2023-12-09T07:47:42.306Z,1010.126
2023-12-09T07:48:41.345Z,1009.992
2023-12-09T07:49:41.312Z,1009.883
2023-12-09T07:50:42.303Z,1009.921
2023-12-09T07:51:42.223Z,1009.883
2023-12-09T07:52:42.223Z,1009.841
2023-12-09T07:53:41.233Z,1009.78
2023-12-09T07:54:41.292Z,1009.734
2023-12-09T07:55:42.213Z,1009.741
2023-12-09T07:56:42.248Z,1009.706
2023-12-09T07:57:42.356Z,1009.698
2023-12-09T07:58:41.238Z,1009.745
2023-12-09T07:59:42.276Z,1009.729
2023-12-09T08:00:41.397Z,1009.734
2023-12-09T08:01:42.335Z,1009.718
2023-12-09T08:02:42.234Z,1009.698
2023-12-09T08:03:41.365Z,1009.684
2023-12-09T08:04:42.350Z,1009.696
2023-12-09T08:05:41.822Z,1009.653
2023-12-09T08:06:42.347Z,1009.665
2023-12-09T08:07:42.305Z,1009.656
2023-12-09T08:08:41.293Z,1009.598
2023-12-09T08:09:42.336Z,1009.578
2023-12-09T08:10:41.260Z,1009.589
2023-12-09T08:11:42.297Z,1009.542
2023-12-09T08:12:42.342Z,1009.522
2023-12-09T08:13:41.275Z,1009.515
2023-12-09T08:14:42.354Z,1009.509
2023-12-09T08:15:41.322Z,1009.531
2023-12-09T08:16:42.310Z,1009.522
2023-12-09T08:17:41.394Z,1009.552
2023-12-09T08:18:41.337Z,1009.555
2023-12-09T08:19:42.504Z,1009.49
2023-12-09T08:20:41.283Z,1009.511
2023-12-09T08:21:42.389Z,1009.48
2023-12-09T08:22:41.282Z,1009.46
2023-12-09T08:23:41.351Z,1009.463
2023-12-09T08:24:42.434Z,1009.426
2023-12-09T08:25:41.292Z,1009.379
2023-12-09T08:26:42.293Z,1009.413
2023-12-09T08:27:41.357Z,1009.377
2023-12-09T08:28:45.575Z,1009.338
2023-12-09T08:29:41.287Z,1009.269
2023-12-09T08:30:41.427Z,1009.233
2023-12-09T08:31:42.317Z,1009.289
2023-12-09T08:32:41.375Z,1009.19
2023-12-09T08:33:42.492Z,1009.208
2023-12-09T08:34:42.240Z,1009.137
2023-12-09T08:35:42.044Z,1009.171
2023-12-09T08:36:42.454Z,1009.066
2023-12-09T08:37:41.340Z,1009.127
2023-12-09T08:38:42.393Z,1009.255
2023-12-09T08:39:41.400Z,1009.158
2023-12-09T08:40:41.340Z,1009.125
2023-12-09T08:41:42.328Z,1009.108
2023-12-09T08:42:41.531Z,1009.108
2023-12-09T08:43:42.344Z,1009.153
2023-12-09T08:44:41.330Z,1009.18
2023-12-09T08:45:42.424Z,1009.168
2023-12-09T08:46:42.332Z,1009.171
2023-12-09T08:47:44.785Z,1009.171
2023-12-09T08:48:42.499Z,1009.129
2023-12-09T08:49:41.443Z,1009.144
2023-12-09T08:50:42.347Z,1009.136
2023-12-09T08:51:42.340Z,1009.144
2023-12-09T08:52:41.349Z,1009.156
2023-12-09T08:53:42.400Z,1009.145
2023-12-09T08:54:41.457Z,1009.14
2023-12-09T08:55:42.369Z,1009.135
2023-12-09T08:56:42.485Z,1009.187
2023-12-09T08:57:42.433Z,1009.221
2023-12-09T08:58:41.363Z,1009.237
2023-12-09T08:59:41.421Z,1009.252
2023-12-09T09:00:42.539Z,1009.272
2023-12-09T09:01:42.403Z,1009.198
2023-12-09T09:02:42.424Z,1009.198
2023-12-09T09:03:41.519Z,1009.146
2023-12-09T09:04:41.411Z,1009.086
2023-12-09T09:05:42.448Z,1009.158
2023-12-09T09:06:42.484Z,1009.206
2023-12-09T09:07:42.448Z,1009.174
2023-12-09T09:08:41.432Z,1009.15
2023-12-09T09:09:41.504Z,1009.143
2023-12-09T09:10:42.437Z,1009.12
2023-12-09T09:11:42.387Z,1009.109
2023-12-09T09:12:42.468Z,1009.197
2023-12-09T09:13:41.401Z,1009.095
2023-12-09T09:14:42.459Z,1009.088
2023-12-09T09:15:41.461Z,1009.053
2023-12-09T09:16:42.435Z,1009.111
2023-12-09T09:17:42.516Z,1009.11
2023-12-09T09:18:41.587Z,1009.128
2023-12-09T09:19:42.576Z,1009.092
2023-12-09T09:20:41.399Z,1009.017
2023-12-09T09:21:42.456Z,1009.049
2023-12-09T09:22:44.620Z,1009.043
2023-12-09T09:23:41.405Z,1009.039
2023-12-09T09:24:42.462Z,1008.986
2023-12-09T09:25:41.426Z,1008.962
2023-12-09T09:26:42.469Z,1008.918
2023-12-09T09:27:41.617Z,1008.943
2023-12-09T09:28:41.431Z,1008.859
2023-12-09T09:29:42.474Z,1008.878
2023-12-09T09:30:41.527Z,1008.726
2023-12-09T09:31:42.463Z,1008.754
2023-12-09T09:32:41.494Z,1008.691
2023-12-09T09:33:41.602Z,1008.748
2023-12-09T09:34:42.542Z,1008.692
2023-12-09T09:35:41.468Z,1008.631
2023-12-09T09:36:42.573Z,1008.559
2023-12-09T09:37:41.447Z,1008.535
2023-12-09T09:38:41.506Z,1008.656
2023-12-09T09:39:42.520Z,1008.422
2023-12-09T09:40:41.468Z,1008.393
2023-12-09T09:41:42.476Z,1008.392
2023-12-09T09:42:41.548Z,1008.453
2023-12-09T09:43:45.258Z,1008.472
2023-12-09T09:44:41.474Z,1008.426
2023-12-09T09:45:41.501Z,1008.422
2023-12-09T09:46:42.507Z,1008.318
2023-12-09T09:47:41.561Z,1008.436
2023-12-09T09:48:42.677Z,1008.409
2023-12-09T09:49:41.521Z,1008.347
2023-12-09T09:50:41.497Z,1008.369
2023-12-09T09:51:42.558Z,1008.31
2023-12-09T09:52:41.497Z,1008.315
2023-12-09T09:53:42.571Z,1008.242
2023-12-09T09:54:41.602Z,1008.142
2023-12-09T09:55:42.553Z,1008.116
2023-12-09T09:56:42.523Z,1008.005
2023-12-09T09:57:41.541Z,1007.95
2023-12-09T09:58:42.531Z,1007.996
2023-12-09T09:59:41.535Z,1007.884
2023-12-09T10:00:42.728Z,1007.917
2023-12-09T10:01:42.556Z,1007.891
2023-12-09T10:02:41.498Z,1007.85
2023-12-09T10:03:42.596Z,1007.806
2023-12-09T10:04:41.570Z,1007.626
2023-12-09T10:05:42.544Z,1007.67
2023-12-09T10:06:42.601Z,1007.596
2023-12-09T10:07:41.554Z,1007.607
2023-12-09T10:08:42.589Z,1007.499
2023-12-09T10:09:41.685Z,1007.501
2023-12-09T10:10:42.577Z,1007.573
2023-12-09T10:11:42.526Z,1007.413
2023-12-09T10:12:42.583Z,1007.398
2023-12-09T10:13:41.517Z,1007.322
2023-12-09T10:14:41.584Z,1007.281
2023-12-09T10:15:42.643Z,1007.294
2023-12-09T10:16:42.592Z,1007.281
2023-12-09T10:17:42.713Z,1007.311
2023-12-09T10:18:41.615Z,1007.265
2023-12-09T10:19:41.617Z,1007.237
2023-12-09T10:20:42.654Z,1007.309
2023-12-09T10:21:42.584Z,1007.294
2023-12-09T10:22:42.617Z,1007.299
2023-12-09T10:23:41.586Z,1007.254
2023-12-09T10:24:50.522Z,1007.23
2023-12-09T10:25:41.534Z,1007.202
2023-12-09T10:26:42.607Z,1007.12
2023-12-09T10:27:42.806Z,1007.144
2023-12-09T10:28:41.565Z,1007.144
2023-12-09T10:29:44.880Z,1007.164
2023-12-09T10:30:41.711Z,1007.08
2023-12-09T10:31:42.632Z,1007.067
2023-12-09T10:32:42.694Z,1007.064
2023-12-09T10:33:41.756Z,1007
2023-12-09T10:34:42.676Z,1007.035
2023-12-09T10:35:41.581Z,1006.923
2023-12-09T10:36:42.659Z,1006.903
2023-12-09T10:37:42.605Z,1006.855
2023-12-09T10:38:41.641Z,1006.932
2023-12-09T10:39:42.581Z,1006.968
2023-12-09T10:40:41.575Z,1006.871
2023-12-09T10:41:42.639Z,1006.843
2023-12-09T10:42:41.677Z,1006.928
2023-12-09T10:43:41.597Z,1006.751
2023-12-09T10:44:42.633Z,1006.76
2023-12-09T10:45:41.655Z,1006.735
2023-12-09T10:46:42.670Z,1006.716
2023-12-09T10:47:41.683Z,1006.726
2023-12-09T10:48:41.678Z,1006.668
2023-12-09T10:49:42.756Z,1006.626
2023-12-09T10:50:41.605Z,1006.692
2023-12-09T10:51:42.700Z,1006.609
2023-12-09T10:52:41.602Z,1006.569
2023-12-09T10:53:42.655Z,1006.593
2023-12-09T10:54:41.686Z,1006.519
2023-12-09T10:55:41.621Z,1006.512
2023-12-09T10:56:42.634Z,1006.472
2023-12-09T10:57:41.646Z,1006.379
2023-12-09T10:58:42.619Z,1006.339
2023-12-09T10:59:41.676Z,1006.298
2023-12-09T11:00:41.763Z,1006.318
2023-12-09T11:01:42.694Z,1006.21
2023-12-09T11:02:41.735Z,1006.193
2023-12-09T11:03:42.778Z,1006.136
2023-12-09T11:04:41.761Z,1006.031
2023-12-09T11:05:41.700Z,1006.083
2023-12-09T11:06:42.701Z,1005.883
2023-12-09T11:07:41.673Z,1005.88
2023-12-09T11:08:42.690Z,1005.962
2023-12-09T11:09:41.787Z,1005.871
2023-12-09T11:10:42.696Z,1005.862
2023-12-09T11:11:42.695Z,1005.926
2023-12-09T11:12:41.730Z,1005.915
2023-12-09T11:13:42.696Z,1005.89
2023-12-09T11:14:41.665Z,1005.826
2023-12-09T11:15:42.769Z,1005.725
2023-12-09T11:16:42.689Z,1005.84
2023-12-09T11:17:41.854Z,1005.833
2023-12-09T11:18:42.864Z,1005.834
2023-12-09T11:19:41.757Z,1005.775
2023-12-09T11:20:42.920Z,1005.718
2023-12-09T11:21:42.720Z,1005.681
2023-12-09T11:22:44.359Z,1005.591
2023-12-09T11:23:42.213Z,1005.576
2023-12-09T11:24:41.707Z,1005.568
2023-12-09T11:25:42.747Z,1005.484
2023-12-09T11:26:42.708Z,1005.57
2023-12-09T11:27:42.738Z,1005.49
2023-12-09T11:28:41.726Z,1005.425
2023-12-09T11:29:41.726Z,1005.314
2023-12-09T11:30:42.796Z,1005.22
2023-12-09T11:31:42.707Z,1005.148
2023-12-09T11:32:42.803Z,1005.122
2023-12-09T11:33:41.751Z,1005.149
2023-12-09T11:34:41.774Z,1005.11
2023-12-09T11:35:42.770Z,1005.053
2023-12-09T11:36:42.803Z,1005.086
2023-12-09T11:37:42.719Z,1004.991
2023-12-09T11:38:41.755Z,1005.035
2023-12-09T11:39:42.815Z,1004.998
2023-12-09T11:40:41.707Z,1004.88
2023-12-09T11:41:42.709Z,1004.83
2023-12-09T11:42:42.793Z,1004.785
2023-12-09T11:43:41.718Z,1004.715
2023-12-09T11:44:42.741Z,1004.58
2023-12-09T11:45:41.818Z,1004.595
2023-12-09T11:46:42.762Z,1004.555